METAR Data
IDs: Format: Raw Decoded Include TAF

Data at: 2348 UTC 24 Apr 2019

METAR for:KFFL (Fairfield Muni, IA, US)
Text:KFFL 242335Z AUTO 00000KT 10SM OVC031 17/10 A2982 RMK AO2 PWINO
Temperature: 17.0°C ( 63°F)
Dewpoint: 10.0°C ( 50°F) [RH = 63%]
Pressure (altimeter):29.82 inches Hg (1009.9 mb)
Winds:calm
Visibility:10 or more sm (16+ km)
Ceiling:3100 feet AGL
Clouds: overcast cloud deck at 3100 feet AGL
QC Flag:automated observation with no human augmentation